Weather observations for the past three days for
Claremore, Claremore Regional Airport
Metric (Imperial)
Date Time (cdt) Wind (kph) Vis. (km) Weather Sky Cond. Temperature (ºC) Relative Humidity Wind Chill (°C) Heat Index (°C) Pressure Precipitation (cm)
Air Dwpt 6 hour altimeter (cm) sea level (mb) 1 hr 3 hr 6 hr
Max. Min.
08 17:55 E 11 16.09 Thunderstorm in Vicinity CLR 24 16 61% 25 75.49 0.0
08 17:15 Calm 16.09 Fair CLR 26 15 51% 27 75.54 0.0
08 16:55 S 17 16.09 Fair CLR 27 16 51% 27 75.54 0.0
08 16:35 SW 13 16.09 Fair CLR 27 16 51% 27 75.57 0.0
08 16:15 SW 17 16.09 Fair CLR 27 15 48% 27 75.59 0.0
08 15:55 SW 13 G 26 16.09 Fair CLR 27 16 51% 27 75.59 0.0
08 15:35 S 19 16.09 Fair CLR 27 16 51% 27 75.64 0.0
08 15:15 S 24 G 33 16.09 Fair CLR 26 16 54% 27 75.64 0.0
08 14:55 S 26 G 35 4.02 Fair with Haze CLR 25 15 54% 26 75.67 0.0
08 14:35 S 26 2.82 Light Rain Haze CLR 25 15 54% 26 75.69 0.0
08 14:15 S 20 G 31 2.82 Light Rain Haze CLR 26 15 51% 27 75.72 0.0
08 13:55 S 20 G 33 16.09 Fair CLR 25 15 54% 26 75.72 0.0
08 13:35 SW 26 16.09 Fair CLR 25 15 54% 26 75.72 0.0
08 13:15 S 20 G 31 16.09 Fair CLR 25 15 54% 26 75.74 0.0
08 12:55 S 22 G 35 16.09 Fair CLR 25 15 54% 26 75.79 0.0
08 12:35 SW 24 G 35 16.09 Fair CLR 24 15 57% 25 75.82 0.0
08 12:15 SW 28 G 39 16.09 Fair CLR 24 14 54% 25 75.84 0.0
08 11:55 S 24 16.09 Fair CLR 23 15 61% 75.87 0.0
08 11:35 S 26 G 35 16.09 Fair CLR 22 15 65% 75.9 0.0
08 11:15 S 24 G 35 16.09 Fair CLR 22 15 65% 75.92 0.0
08 10:55 S 26 G 41 16.09 Fair CLR 21 14 64% 75.95 0.0
08 10:35 SW 28 G 43 16.09 Fair CLR 21 14 64% 75.97 0.0
08 10:15 S 24 16.09 Fair CLR 20 14 69% 76 0.0
08 09:55 S 22 G 35 16.09 Fair CLR 19 14 73% 76.02 0.0
08 09:35 S 24 G 33 16.09 Fair CLR 18 14 78% 76.05 0.0
08 09:15 S 20 G 30 16.09 Fair CLR 17 14 83% 76.05 0.0
08 08:55 S 20 G 30 16.09 Fair CLR 17 14 83% 76.05 0.0
08 08:15 S 20 16.09 Fair CLR 15 13 88% 76.05 0.0
08 07:35 S 11 16.09 Fair CLR 12 12 100% 76.05 0.0
08 07:15 SE 7 16.09 Fair CLR 11 11 100% 76.05 0.0
08 06:55 SE 7 16.09 Fair CLR 10 10 100% 9 76.05 0.0
08 06:35 Calm 16.09 Fair CLR 10 10 100% 76.02 0.0
08 06:15 Calm 16.09 Fair CLR 10 10 100% 76.02 0.0
08 05:55 S 7 16.09 Fair CLR 11 10 94% 76 0.0
08 05:35 S 7 16.09 Fair CLR 11 10 94% 76 0.0
08 05:15 S 6 16.09 Fair CLR 11 10 94% 75.97 0.0
08 04:55 S 9 16.09 Fair CLR 11 10 94% 75.95 0.0
08 04:35 S 9 16.09 Fair CLR 11 10 94% 75.95 0.0
08 04:15 S 7 16.09 Fair CLR 11 10 94% 75.92 0.0
08 03:55 SE 9 16.09 Fair CLR 12 10 88% 75.95 0.0
08 03:35 S 9 16.09 Fair CLR 13 9 77% 75.95 0.0
08 03:15 S 15 G 24 16.09 Fair CLR 13 9 77% 75.95 0.0
08 02:35 S 13 16.09 Fair CLR 13 9 77% 76 0.0
08 02:15 S 17 16.09 Fair CLR 14 9 72% 76 0.0
08 01:55 S 17 16.09 Fair CLR 14 9 72% 76.02 0.0
08 01:35 S 15 14.48 Fair CLR 13 9 77% 76.02 0.0
08 01:15 S 15 0.80 Light Rain Haze VV005 14 10 77% 76.05 0.0
08 00:55 S 13 8.05 Fair with Haze CLR 13 10 82% 76.05 0.0
08 00:35 S 9 11.27 Fair CLR 12 10 88% 76.05 0.0
08 00:15 S 11 11.27 Fair CLR 13 10 82% 76.05 0.0
07 23:55 S 11 11.27 Fair CLR 12 10 88% 76.05 0.0
07 23:35 SE 9 11.27 Fair CLR 12 10 88% 76.07 0.0
07 23:15 SE 11 11.27 Fair CLR 13 10 82% 76.07 0.0
07 22:55 SE 9 12.87 Fair CLR 13 9 77% 76.07 0.0
07 22:35 SE 11 12.87 Fair CLR 13 9 77% 76.07 0.0
07 21:55 S 11 11.27 Fair CLR 14 9 72% 76.07 0.0
07 21:35 S 9 11.27 Fair CLR 14 10 77% 76.07 0.0
07 21:15 S 11 9.66 Fair with Haze CLR 15 9 68% 76.07 0.0
07 20:55 S 13 9.66 Fair with Haze CLR 15 9 68% 76.05 0.0
07 20:35 S 11 11.27 Fair CLR 15 9 68% 76.02 0.0
07 20:15 S 9 16.09 Fair CLR 17 8 56% 76 0.0
07 19:55 S 9 16.09 Fair CLR 19 8 49% 76 0.0
07 19:35 S 13 16.09 Fair CLR 20 8 46% 76 0.0
07 19:15 S 13 16.09 Fair CLR 21 8 43% 76 0.0
07 18:55 S 11 16.09 Fair CLR 21 7 40% 76.02 0.0
07 18:35 SW 15 16.09 Fair CLR 22 7 38% 76.02 0.0
07 18:15 SW 15 14.48 Light Rain CLR 22 7 38% 76.02 0.0
07 17:55 SW 15 14.48 Light Rain CLR 22 7 38% 76.05 0.0
07 17:35 SW 15 16.09 Fair CLR 22 7 38% 76.05 0.0
07 17:15 SW 13 G 24 16.09 Fair CLR 22 7 38% 76.07 0.0
07 16:55 SW 9 16.09 Fair CLR 22 7 38% 76.07 0.0
07 16:35 Vrbl 9 16.09 Fair CLR 22 7 38% 76.1 0.0
07 16:15 SW 17 G 26 16.09 Fair CLR 22 7 38% 76.1 0.0
07 15:55 Vrbl 9 G 20 16.09 Fair CLR 22 7 38% 76.15 0.0
07 15:35 W 11 G 31 16.09 Fair CLR 21 7 40% 76.17 0.0
07 15:15 SW 19 G 31 16.09 Fair CLR 22 7 38% 76.17 0.0
07 14:35 W 20 16.09 Fair CLR 21 7 40% 76.23 0.0
07 14:15 Vrbl 7 G 24 16.09 Fair CLR 21 7 40% 76.25 0.0
07 13:55 SW 15 G 30 16.09 Fair CLR 21 7 40% 76.28 0.0
07 13:35 SW 15 14.48 Fair CLR 20 6 40% 76.28 0.0
07 13:15 SW 13 G 30 16.09 Fair CLR 20 6 40% 76.3 0.0
07 12:55 W 17 G 26 16.09 Fair CLR 20 6 40% 76.33 0.0
07 12:15 SW 15 16.09 Fair CLR 18 6 46% 76.38 0.0
07 11:55 SW 19 16.09 Fair CLR 19 6 43% 76.4 0.0
07 11:35 Vrbl 9 G 20 16.09 Fair CLR 18 6 46% 76.4 0.0
07 10:55 SW 11 G 22 16.09 Fair CLR 18 5 43% 76.43 0.0
07 10:35 S 11 G 24 16.09 Fair CLR 17 5 45% 76.45 0.0
07 10:15 SW 17 16.09 Fair CLR 17 6 49% 76.48 0.0
07 09:55 Vrbl 7 16.09 Fair CLR 16 6 52% 76.5 0.0
07 09:35 Calm 14.48 Fair CLR 15 8 63% 76.48 0.0
07 09:15 SW 7 16.09 Fair CLR 13 8 72% 76.48 0.0
07 08:55 Calm 16.09 Fair CLR 12 9 82% 76.48 0.0
07 08:35 SW 6 16.09 Fair CLR 11 9 88% 76.48 0.0
07 08:15 W 6 16.09 Fair CLR 10 9 94% 76.48 0.0
07 07:55 Calm 16.09 Fair CLR 9 9 100% 76.48 0.0
07 07:35 Calm 16.09 Fair CLR 8 8 100% 76.45 0.0
07 07:15 Calm 16.09 Fair CLR 6 6 100% 76.45 0.0
07 06:55 Calm 14.48 Fair CLR 4 4 100% 76.43 0.0
07 06:35 Calm 14.48 Fair CLR 4 4 100% 76.43 0.0
07 05:55 Calm 16.09 Partly Cloudy SCT095 5 5 100% 76.4 0.0
07 05:35 Calm 16.09 Overcast OVC095 5 5 100% 76.4 0.0
07 05:15 Calm 16.09 Mostly Cloudy BKN095 5 5 100% 76.4 0.0
07 04:55 Calm 16.09 Fair CLR 5 5 100% 76.4 0.0
07 04:35 Calm 16.09 Fair CLR 5 5 100% 76.38 0.0
07 04:15 Calm 16.09 Fair CLR 5 5 100% 76.38 0.0
07 03:55 Calm 16.09 Fair CLR 5 5 100% 76.4 0.0
07 03:35 NE 6 16.09 Fair CLR 5 5 100% 76.43 0.0
07 03:15 Calm 16.09 Fair CLR 5 5 100% 76.4 0.0
07 02:55 Calm 16.09 Fair CLR 5 5 100% 76.43 0.0
07 02:35 Calm 16.09 Fair CLR 6 6 100% 76.43 0.0
07 02:15 Calm 16.09 Fair CLR 6 6 100% 76.43 0.0
07 01:55 Calm 16.09 Fair CLR 6 6 100% 76.43 0.0
07 01:35 NE 6 16.09 Fair CLR 8 6 87% 76.43 0.0
07 01:15 NE 9 16.09 Fair CLR 7 6 93% 5 76.4 0.0
07 00:55 NE 7 16.09 Fair CLR 8 6 87% 7 76.4 0.0
07 00:35 NE 7 16.09 Fair CLR 8 6 87% 7 76.43 0.0
07 00:15 N 6 16.09 Fair CLR 8 6 87% 76.4 0.0
06 23:35 NE 7 16.09 Fair CLR 8 7 93% 7 76.4 0.0
06 23:15 NE 6 16.09 Fair CLR 8 7 93% 76.4 0.0
06 22:55 NE 6 16.09 Fair CLR 8 7 93% 76.4 0.0
06 22:35 NE 6 16.09 Fair CLR 9 7 87% 76.38 0.0
06 22:15 Calm 16.09 Fair CLR 9 7 87% 76.38 0.0
06 21:55 N 6 16.09 Fair CLR 10 7 82% 76.35 0.0
06 21:35 N 7 16.09 Fair CLR 11 7 77% 76.35 0.0
06 20:55 N 9 16.09 Fair CLR 12 6 67% 76.33 0.0
06 20:35 N 7 16.09 Fair CLR 12 6 67% 76.3 0.0
06 20:15 N 9 16.09 Fair CLR 13 6 63% 76.28 0.0
06 19:55 N 9 16.09 Fair CLR 15 6 55% 76.28 0.0
06 19:35 NE 9 G 19 16.09 Fair CLR 16 5 48% 76.25 0.0
06 19:15 NE 13 G 24 16.09 Fair CLR 17 5 45% 76.25 0.0
06 18:55 NE 15 16.09 A Few Clouds FEW060 17 4 42% 76.23 0.0
06 18:35 Vrbl 11 G 24 16.09 A Few Clouds FEW060 18 5 43% 76.23 0.0
06 17:55 NE 15 G 30 16.09 Fair CLR 18 5 43% 76.2 0.0
06 17:35 NE 20 G 33 16.09 A Few Clouds FEW055 18 5 43% 76.2 0.0
06 17:15 N 24 16.09 Partly Cloudy SCT050 17 6 49% 76.17 0.0
06 16:55 N 19 16.09 Partly Cloudy SCT050 18 6 46% 76.15 0.0
06 16:35 NE 15 G 28 16.09 Partly Cloudy SCT055 18 7 49% 76.17 0.0
06 16:15 N 19 G 28 16.09 Mostly Cloudy BKN050 18 6 46% 76.17 0.0
06 15:55 NE 13 G 28 16.09 Mostly Cloudy SCT050 BKN055 17 6 49% 76.2 0.0
06 15:35 NE 20 G 30 16.09 A Few Clouds FEW048 18 6 46% 76.23 0.0
06 15:15 NE 15 G 37 16.09 Partly Cloudy SCT048 17 6 49% 76.23 0.0
06 14:55 NE 13 G 31 16.09 Mostly Cloudy BKN048 17 6 49% 76.23 0.0
06 14:35 N 15 G 30 16.09 Partly Cloudy SCT047 18 7 49% 76.25 0.0
06 14:15 NE 22 16.09 Mostly Cloudy BKN047 17 7 52% 76.28 0.0
06 13:55 NE 13 16.09 Mostly Cloudy BKN046 17 8 56% 76.28 0.0
06 13:35 NE 15 16.09 Partly Cloudy SCT042 16 7 55% 76.3 0.0
06 13:15 NE 22 16.09 Partly Cloudy SCT041 16 7 55% 76.3 0.0
06 12:55 NE 26 16.09 Partly Cloudy FEW041 SCT050 16 7 55% 76.33 0.0
06 12:35 NE 20 G 33 16.09 Overcast OVC055 16 7 55% 76.38 0.0
06 12:15 NE 20 G 31 16.09 Overcast OVC055 16 7 55% 76.4 0.0
06 11:55 E 19 16.09 Overcast OVC055 15 7 59% 76.4 0.0
06 11:35 NE 17 G 28 16.09 Overcast OVC055 15 7 59% 76.4 0.0
06 11:15 NE 17 G 26 14.48 Mostly Cloudy BKN050 15 7 59% 76.4 0.0
06 10:55 NE 17 G 28 16.09 Fair CLR 15 8 63% 76.35 0.0
06 10:35 NE 19 G 30 16.09 Fair CLR 14 7 63% 76.3 0.0
06 10:15 NE 22 G 33 16.09 Fair CLR 13 7 67% 76.28 0.0
06 09:55 NE 26 16.09 Fair CLR 12 6 67% 76.3 0.0
06 09:35 NE 24 16.09 Fair CLR 12 6 67% 76.28 0.0
06 09:15 NE 26 G 37 16.09 Fair CLR 11 6 72% 76.28 0.0
06 08:55 NE 22 G 35 16.09 Fair CLR 11 6 72% 76.28 0.0
06 08:35 NE 22 16.09 A Few Clouds FEW055 10 7 82% 7 76.28 0.0
06 08:15 NE 20 G 39 16.09 Fair CLR 10 7 82% 8 76.28 0.0
06 07:55 NE 20 16.09 Fair CLR 10 7 82% 8 76.28 0.0
06 07:35 NE 26 16.09 Partly Cloudy SCT050 10 7 82% 7 76.25 0.0
06 07:15 NE 19 G 35 16.09 Overcast OVC050 9 8 94% 7 76.23 0.0
06 06:55 N 15 G 31 16.09 Overcast OVC050 9 8 94% 7 76.23 0.0
06 06:35 N 19 G 28 16.09 Overcast OVC049 9 8 94% 7 76.25 0.0
06 06:15 N 15 G 24 16.09 Overcast OVC047 9 8 94% 7 76.23 0.0
06 05:55 N 15 16.09 Overcast OVC047 9 8 94% 7 76.2 0.0
06 05:35 NE 13 16.09 Overcast OVC048 9 7 87% 7 76.2 0.0
06 05:15 N 13 16.09 Overcast OVC048 10 7 82% 8 76.17 0.0
06 04:55 N 13 G 24 16.09 Overcast OVC048 10 7 82% 8 76.15 0.0
06 04:35 N 17 G 28 16.09 Overcast OVC047 9 7 87% 7 76.07 0.0
06 04:15 N 13 G 28 16.09 Overcast OVC046 10 7 82% 8 76.05 0.0
06 03:55 N 17 G 28 16.09 Overcast OVC043 10 7 82% 8 76.02 0.0
06 03:35 NE 19 16.09 Overcast OVC042 10 7 82% 8 76 0.0
06 03:15 NE 20 G 31 16.09 Overcast OVC043 10 7 82% 8 76 0.0
06 02:55 NE 13 G 26 16.09 Overcast OVC043 10 7 82% 8 76 0.0
06 02:35 NE 15 G 26 16.09 Overcast OVC041 10 7 82% 8 75.97 0.0
06 02:15 N 17 G 28 16.09 Overcast BKN040 OVC050 10 7 82% 8 75.97 0.0
06 01:55 NE 17 G 30 16.09 Overcast BKN039 OVC050 10 7 82% 8 75.97 0.0
06 01:35 NE 13 G 28 16.09 Overcast OVC039 10 7 82% 8 75.97 0.0
06 01:15 NE 17 G 35 16.09 Overcast OVC037 10 6 76% 8 75.97 0.0
06 00:55 NE 24 G 39 16.09 Overcast OVC036 10 6 76% 7 75.97 0.0
06 00:35 NE 20 G 35 16.09 Overcast BKN036 BKN042 OVC050 10 7 82% 8 75.97 0.0
06 00:15 NE 20 G 33 16.09 Overcast BKN036 BKN041 OVC050 10 7 82% 8 75.95 0.0
05 23:35 N 20 G 31 16.09 Overcast OVC034 10 7 82% 8 75.97 0.0
05 23:15 N 17 G 30 16.09 Overcast OVC031 10 8 88% 8 76 0.0
05 22:55 NE 20 G 30 16.09 Overcast OVC029 10 8 88% 8 75.97 0.0
05 22:35 NE 17 G 39 16.09 Overcast SCT021 OVC029 10 8 88% 8 75.97 0.0
05 22:15 N 13 G 39 16.09 Overcast OVC020 10 8 88% 8 75.97 0.0
05 21:55 NE 26 G 41 14.48 Overcast OVC020 10 8 88% 7 75.9 0.0
05 21:35 NE 20 G 35 16.09 Overcast OVC020 10 8 88% 8 75.87 0.0
05 21:15 NE 17 G 35 16.09 Overcast OVC019 10 8 88% 8 75.84 0.0
05 20:55 NE 15 G 37 16.09 Overcast BKN020 OVC030 10 8 88% 8 75.79 0.0
05 20:35 NE 17 G 31 16.09 Overcast OVC020 10 8 88% 8 75.77 0.0
05 20:15 NE 22 G 41 16.09 Overcast OVC019 10 8 88% 7 75.77 0.0
05 19:55 NE 17 G 35 16.09 Overcast OVC021 10 8 88% 8 75.77 0.0
05 19:35 NE 24 G 43 16.09 Overcast BKN022 OVC028 10 8 88% 7 75.72 0.0
05 19:15 NE 20 G 39 16.09 Light Rain OVC026 10 8 88% 8 75.74 0.0
05 18:55 NE 26 G 43 16.09 Overcast OVC024 11 7 77% 75.72 0.0
05 18:35 NE 30 G 44 16.09 Overcast OVC023 11 7 77% 75.72 0.0
05 18:15 NE 28 G 43 16.09 Overcast OVC023 11 7 77% 75.72 0.0
Date Time (cdt) Wind (kph) Vis. (km) Weather Sky Cond. Air Dwpt Max. Min. Relative Humidity Wind Chill (°C) Heat Index (°C) altimeter (cm) sea level (mb) 1 hr 3 hr 6 hr
6 hour
Temperature (ºC) Pressure Precipitation (cm)